Time;durP1;ratioP1;P1;durP2;ratioP2;P2;SDS_P1;SDS_P2;PMS_P1;PMS_P2;Temp;Humidity;BMP_temperature;BMP_pressure;BME280_temperature;BME280_humidity;BME280_pressure;Samples;Min_cycle;Max_cycle;Signal;HPM_P1;HPM_P2
2021/07/17 00:01:35;;;;;;;10.23;4.15;;;;;;;28.55;43.78;102053.81;4408644;32;20140;-73
2021/07/17 00:04:01;;;;;;;8.57;3.75;;;;;;;28.56;43.81;102049.56;4410859;32;20434;-72
2021/07/17 00:06:27;;;;;;;8.40;3.65;;;;;;;28.32;44.08;102037.78;4410626;32;20068;-74
2021/07/17 00:08:53;;;;;;;8.13;3.40;;;;;;;28.32;43.97;102046.47;4411979;32;20061;-74
2021/07/17 00:11:19;;;;;;;8.13;3.37;;;;;;;28.42;43.67;102044.88;4409681;32;20823;-71
2021/07/17 00:13:47;;;;;;;10.95;4.10;;;;;;;28.52;43.53;102042.47;4411432;32;20479;-73
2021/07/17 00:16:13;;;;;;;7.40;3.40;;;;;;;28.34;43.80;102043.03;4407668;32;20070;-72
2021/07/17 00:18:39;;;;;;;14.48;5.32;;;;;;;28.27;44.06;102037.81;4398705;32;20358;-72
2021/07/17 00:21:05;;;;;;;7.47;3.40;;;;;;;27.98;44.59;102038.44;4409661;32;20030;-72
2021/07/17 00:23:31;;;;;;;10.52;3.75;;;;;;;27.97;44.62;102039.72;4408095;32;20038;-72
2021/07/17 00:25:58;;;;;;;12.05;4.75;;;;;;;27.81;44.79;102040.53;4409250;32;20088;-71
2021/07/17 00:28:24;;;;;;;10.23;4.47;;;;;;;27.73;45.22;102039.50;4412181;32;20117;-74
2021/07/17 00:30:50;;;;;;;8.40;3.95;;;;;;;27.92;44.72;102046.34;4410823;32;20461;-71
2021/07/17 00:33:16;;;;;;;8.80;3.60;;;;;;;27.89;44.71;102045.28;4410347;32;20516;-73
2021/07/17 00:35:42;;;;;;;6.00;2.97;;;;;;;27.78;44.93;102044.47;4399851;32;20428;-73
2021/07/17 00:38:08;;;;;;;9.55;3.03;;;;;;;27.80;44.85;102039.75;4412803;32;20111;-72
2021/07/17 00:40:34;;;;;;;7.30;3.65;;;;;;;27.75;44.97;102049.22;4409919;32;20405;-72
2021/07/17 00:42:59;;;;;;;5.43;3.05;;;;;;;27.76;44.88;102050.78;4411505;32;20054;-72
2021/07/17 00:45:25;;;;;;;10.70;3.65;;;;;;;27.83;44.79;102049.47;4410153;32;20106;-72
2021/07/17 00:47:51;;;;;;;6.85;3.47;;;;;;;27.90;44.68;102046.06;4412404;32;20042;-72
2021/07/17 00:50:20;;;;;;;6.15;3.08;;;;;;;27.84;44.77;102039.47;4409789;32;20085;-71
2021/07/17 00:52:46;;;;;;;7.37;3.03;;;;;;;27.85;44.97;102047.63;4408403;32;20077;-71
2021/07/17 00:55:13;;;;;;;7.40;3.15;;;;;;;27.82;44.83;102042.91;4410175;32;20103;-74
2021/07/17 00:57:41;;;;;;;9.38;3.42;;;;;;;27.73;44.95;102043.16;4411374;32;20033;-73
2021/07/17 01:00:10;;;;;;;11.55;3.62;;;;;;;27.62;45.13;102046.09;4409053;32;20050;-72
2021/07/17 01:02:39;;;;;;;8.15;3.47;;;;;;;27.78;44.86;102039.50;4409380;32;20515;-74
2021/07/17 01:05:07;;;;;;;6.32;3.05;;;;;;;27.57;45.30;102043.97;4410037;32;20035;-74
2021/07/17 01:07:33;;;;;;;7.50;3.00;;;;;;;27.57;45.28;102043.97;4410635;32;21272;-73
2021/07/17 01:09:59;;;;;;;5.90;3.08;;;;;;;27.35;45.65;102035.31;4410546;32;20100;-73
2021/07/17 01:12:25;;;;;;;4.97;3.00;;;;;;;27.30;45.66;102044.75;4408569;32;20086;-72
2021/07/17 01:14:51;;;;;;;8.73;3.03;;;;;;;27.21;45.88;102044.97;4411831;32;20112;-73
2021/07/17 01:17:17;;;;;;;9.02;3.58;;;;;;;27.44;45.36;102048.69;4410630;32;20037;-75
2021/07/17 01:19:44;;;;;;;12.37;4.22;;;;;;;27.40;45.56;102043.19;4413257;32;20092;-74
2021/07/17 01:22:09;;;;;;;7.28;4.15;;;;;;;27.29;45.71;102046.06;4409324;32;20081;-74
2021/07/17 01:24:35;;;;;;;8.63;3.60;;;;;;;27.27;45.66;102051.59;4413677;32;20066;-74
2021/07/17 01:27:01;;;;;;;10.13;3.55;;;;;;;27.27;45.82;102045.03;4412600;32;20077;-73
2021/07/17 01:29:27;;;;;;;10.68;4.10;;;;;;;27.31;45.74;102037.69;4410001;32;20089;-73
2021/07/17 01:31:52;;;;;;;7.32;3.78;;;;;;;27.21;45.86;102044.97;4409515;32;20126;-73
2021/07/17 01:34:18;;;;;;;12.75;5.55;;;;;;;27.07;46.19;102043.94;4413070;32;20092;-74
2021/07/17 01:36:46;;;;;;;9.05;4.30;;;;;;;27.10;46.11;102042.09;4411891;32;20421;-74
2021/07/17 01:39:13;;;;;;;10.63;3.92;;;;;;;27.19;46.10;102036.81;4410864;32;20137;-71
2021/07/17 01:41:40;;;;;;;10.23;3.78;;;;;;;27.13;45.97;102043.94;4407930;32;20037;-73
2021/07/17 01:44:07;;;;;;;6.62;3.78;;;;;;;27.21;45.86;102040.00;4408448;32;20130;-75
2021/07/17 01:46:32;;;;;;;10.00;3.90;;;;;;;26.87;46.54;102044.13;4411145;32;20101;-73
2021/07/17 01:48:58;;;;;;;7.22;3.20;;;;;;;27.00;46.10;102040.75;4412190;32;20038;-74
2021/07/17 01:51:25;;;;;;;6.70;3.70;;;;;;;27.00;46.06;102041.53;4410097;32;20144;-71
2021/07/17 01:53:57;;;;;;;5.62;3.42;;;;;;;27.08;46.04;102036.03;4410504;32;20042;-74
2021/07/17 01:56:25;;;;;;;8.60;3.20;;;;;;;26.95;46.33;102032.84;4397100;32;20102;-71
2021/07/17 01:58:50;;;;;;;12.75;4.25;;;;;;;26.80;46.60;102033.09;4409684;32;20070;-72
2021/07/17 02:01:16;;;;;;;10.15;4.05;;;;;;;26.68;46.79;102036.47;4409793;32;20423;-72
2021/07/17 02:03:46;;;;;;;5.07;3.12;;;;;;;26.69;46.81;102033.03;4408603;32;20069;-72
2021/07/17 02:06:13;;;;;;;5.72;3.10;;;;;;;26.81;46.53;102046.22;4410491;32;20432;-73
2021/07/17 02:08:41;;;;;;;8.18;3.12;;;;;;;26.66;46.89;102039.87;4410351;32;20038;-73
2021/07/17 02:11:08;;;;;;;6.25;2.95;;;;;;;26.63;46.96;102040.91;4410827;32;20101;-73
2021/07/17 02:13:34;;;;;;;7.22;3.33;;;;;;;26.80;46.51;102038.88;4411243;32;20090;-73
2021/07/17 02:16:01;;;;;;;6.47;3.60;;;;;;;26.62;46.72;102039.34;4410071;32;20092;-74
2021/07/17 02:18:32;;;;;;;8.30;3.67;;;;;;;26.44;47.23;102041.84;4410322;32;20095;-74
2021/07/17 02:20:59;;;;;;;7.32;3.17;;;;;;;26.57;47.05;102047.97;4411708;32;20046;-72
2021/07/17 02:23:25;;;;;;;7.53;3.58;;;;;;;26.64;46.78;102044.59;4409790;32;20046;-72
2021/07/17 02:25:51;;;;;;;8.50;2.80;;;;;;;26.65;46.70;102046.16;4409568;32;20332;-73
2021/07/17 02:28:17;;;;;;;8.60;2.80;;;;;;;26.52;46.98;102049.50;4409939;32;20035;-74
2021/07/17 02:30:43;;;;;;;5.40;3.05;;;;;;;26.41;47.14;102048.66;4411820;32;20090;-73
2021/07/17 02:33:10;;;;;;;8.27;3.55;;;;;;;26.45;46.96;102046.31;4410612;32;20077;-73
2021/07/17 02:35:36;;;;;;;11.15;2.97;;;;;;;26.35;47.31;102042.09;4413644;32;20037;-73
2021/07/17 02:38:02;;;;;;;10.13;2.90;;;;;;;26.41;47.08;102042.88;4411969;32;20046;-73
2021/07/17 02:40:28;;;;;;;6.68;2.60;;;;;;;26.37;47.23;102040.25;4410528;32;20068;-72
2021/07/17 02:42:54;;;;;;;11.77;3.30;;;;;;;26.22;47.58;102048.31;4415311;32;20046;-73
2021/07/17 02:45:20;;;;;;;8.48;3.25;;;;;;;26.27;47.25;102044.69;4411847;32;20057;-74
2021/07/17 02:47:46;;;;;;;8.05;3.08;;;;;;;26.49;46.93;102044.78;4411574;32;20037;-74
2021/07/17 02:50:12;;;;;;;12.13;3.50;;;;;;;26.50;46.83;102048.44;4410903;32;20082;-71
2021/07/17 02:52:39;;;;;;;5.47;3.12;;;;;;;26.60;46.70;102041.91;4414311;32;20112;-72
2021/07/17 02:55:06;;;;;;;8.32;3.20;;;;;;;26.43;46.95;102035.28;4414274;32;20409;-72
2021/07/17 02:57:32;;;;;;;9.80;3.28;;;;;;;26.49;46.93;102049.75;4412678;32;20083;-71
2021/07/17 02:59:59;;;;;;;5.22;3.28;;;;;;;26.36;47.01;102043.66;4410337;32;20137;-73
2021/07/17 03:02:25;;;;;;;8.98;3.12;;;;;;;26.49;46.71;102044.78;4407852;32;20547;-72
2021/07/17 03:04:51;;;;;;;7.90;2.97;;;;;;;26.49;46.78;102041.09;4414276;32;20139;-73
2021/07/17 03:07:16;;;;;;;7.80;2.78;;;;;;;26.24;47.21;102031.28;4414420;32;20050;-75
2021/07/17 03:09:42;;;;;;;10.25;3.45;;;;;;;26.40;46.68;102045.00;4409538;32;20086;-74
2021/07/17 03:12:08;;;;;;;7.10;2.90;;;;;;;26.22;47.00;102038.84;4413777;32;20110;-72
2021/07/17 03:14:35;;;;;;;8.57;2.80;;;;;;;26.30;46.69;102034.19;4415338;32;20111;-71
2021/07/17 03:17:00;;;;;;;5.43;2.97;;;;;;;26.18;47.17;102039.13;4411703;32;20129;-74
2021/07/17 03:19:26;;;;;;;7.47;2.17;;;;;;;26.22;47.04;102033.87;4411838;32;20381;-72
2021/07/17 03:21:52;;;;;;;5.03;2.83;;;;;;;26.08;47.33;102036.97;4411576;32;20081;-73
2021/07/17 03:24:18;;;;;;;5.28;3.00;;;;;;;26.09;47.15;102033.56;4414110;32;20094;-72
2021/07/17 03:26:44;;;;;;;8.82;2.95;;;;;;;25.92;47.49;102026.84;4412123;32;20038;-73
2021/07/17 03:29:10;;;;;;;11.27;3.33;;;;;;;26.06;47.15;102031.69;4410069;32;20060;-72
2021/07/17 03:31:36;;;;;;;6.55;2.53;;;;;;;26.04;47.33;102030.63;4413037;32;20057;-72
2021/07/17 03:34:02;;;;;;;9.38;2.92;;;;;;;26.02;47.34;102027.47;4412204;32;20045;-75
2021/07/17 03:36:29;;;;;;;4.55;3.10;;;;;;;25.99;47.39;102028.50;4412821;32;20035;-74
2021/07/17 03:38:55;;;;;;;8.70;2.92;;;;;;;25.90;47.73;102028.69;4411182;32;20060;-73
2021/07/17 03:41:20;;;;;;;5.10;2.47;;;;;;;25.88;47.74;102020.53;4410402;32;20085;-74
2021/07/17 03:43:46;;;;;;;7.25;2.70;;;;;;;26.00;47.30;102021.41;4413567;32;20081;-74
2021/07/17 03:46:13;;;;;;;5.72;2.75;;;;;;;25.82;47.84;102025.47;4415034;32;20090;-73
2021/07/17 03:48:40;;;;;;;6.62;2.72;;;;;;;25.76;47.98;102021.78;4413274;32;20072;-72
2021/07/17 03:51:06;;;;;;;10.52;3.22;;;;;;;25.67;48.17;102024.84;4409983;32;20054;-72
2021/07/17 03:53:32;;;;;;;8.55;3.28;;;;;;;25.87;47.91;102021.06;4413120;32;20434;-72
2021/07/17 03:55:59;;;;;;;6.07;2.60;;;;;;;25.84;47.85;102025.78;4411689;32;20070;-74
2021/07/17 03:58:25;;;;;;;7.82;3.00;;;;;;;25.57;48.23;102016.91;4413841;32;20385;-71
2021/07/17 04:00:50;;;;;;;7.65;2.97;;;;;;;25.59;48.30;102032.41;4410871;32;20053;-72
2021/07/17 04:03:16;;;;;;;9.32;2.90;;;;;;;25.53;48.44;102028.69;4410689;32;20045;-73
2021/07/17 04:05:42;;;;;;;4.43;2.67;;;;;;;25.51;48.38;102027.59;4412873;32;20046;-71
2021/07/17 04:08:08;;;;;;;6.05;2.92;;;;;;;25.51;48.14;102027.59;4412878;32;20068;-74
2021/07/17 04:10:34;;;;;;;8.55;2.87;;;;;;;25.52;48.04;102032.09;4411922;32;20436;-72
2021/07/17 04:13:04;;;;;;;9.52;3.58;;;;;;;25.40;48.58;102027.53;4409678;32;20063;-72
2021/07/17 04:15:30;;;;;;;6.45;3.08;;;;;;;25.60;48.26;102030.28;4412680;32;20430;-73
2021/07/17 04:17:56;;;;;;;4.68;2.50;;;;;;;25.47;48.39;102029.94;4408822;32;20128;-73
2021/07/17 04:20:22;;;;;;;5.22;2.53;;;;;;;25.56;48.19;102029.75;4410461;32;20482;-74
2021/07/17 04:22:47;;;;;;;6.05;2.78;;;;;;;25.56;48.12;102033.44;4411793;32;20395;-72
2021/07/17 04:25:13;;;;;;;5.90;3.17;;;;;;;25.55;48.03;102023.19;4412638;32;20190;-73
2021/07/17 04:27:39;;;;;;;5.65;2.80;;;;;;;25.65;47.72;102027.47;4410108;32;20049;-71
2021/07/17 04:30:07;;;;;;;9.85;2.80;;;;;;;25.66;47.93;102022.47;4410115;32;20077;-73
2021/07/17 04:32:33;;;;;;;8.05;2.80;;;;;;;25.69;47.86;102019.38;4409476;32;20452;-72
2021/07/17 04:34:59;;;;;;;5.93;3.15;;;;;;;25.50;48.11;102029.72;4413669;32;20068;-73
2021/07/17 04:37:25;;;;;;;10.98;2.85;;;;;;;25.66;47.51;102025.38;4411904;32;20074;-72
2021/07/17 04:39:51;;;;;;;4.40;2.95;;;;;;;25.64;47.82;102031.62;4406958;32;20075;-74
2021/07/17 04:42:18;;;;;;;4.53;2.83;;;;;;;25.64;47.77;102020.09;4410354;32;20038;-74
2021/07/17 04:44:44;;;;;;;9.57;2.97;;;;;;;25.81;47.58;102017.34;4411251;32;20085;-74
2021/07/17 04:47:10;;;;;;;8.48;3.25;;;;;;;25.72;47.67;102029.06;4411667;32;20077;-70
2021/07/17 04:49:35;;;;;;;9.52;2.97;;;;;;;25.71;47.64;102034.03;4412027;32;20127;-71
2021/07/17 04:52:01;;;;;;;5.47;2.50;;;;;;;25.67;47.56;102036.38;4410100;32;20033;-73
2021/07/17 04:54:27;;;;;;;10.30;3.65;;;;;;;25.70;47.67;102029.59;4411061;32;20088;-72
2021/07/17 04:56:53;;;;;;;10.02;3.12;;;;;;;25.85;47.27;102020.78;4407994;32;20112;-75
2021/07/17 04:59:18;;;;;;;8.77;3.10;;;;;;;25.93;47.10;102031.34;4400015;32;20086;-72
2021/07/17 05:01:44;;;;;;;6.87;3.30;;;;;;;26.01;46.91;102035.34;4411291;32;20146;-72
2021/07/17 05:04:11;;;;;;;7.65;2.90;;;;;;;25.99;47.04;102037.97;4398944;32;20418;-71
2021/07/17 05:06:37;;;;;;;5.32;3.10;;;;;;;26.06;47.05;102034.59;4408648;32;20390;-74
2021/07/17 05:09:04;;;;;;;13.35;3.37;;;;;;;26.20;46.77;102033.59;4413007;32;20081;-72
2021/07/17 05:11:30;;;;;;;9.30;3.20;;;;;;;26.34;46.60;102038.41;4410295;32;20344;-73
2021/07/17 05:13:56;;;;;;;8.57;2.80;;;;;;;26.34;46.67;102038.41;4411176;32;20026;-70
2021/07/17 05:16:23;;;;;;;7.37;3.33;;;;;;;26.46;46.40;102037.16;4408836;32;20065;-72
2021/07/17 05:18:49;;;;;;;9.35;3.40;;;;;;;26.48;46.49;102036.63;4410189;32;20114;-71
2021/07/17 05:21:16;;;;;;;9.55;3.53;;;;;;;26.51;46.28;102042.12;4411901;32;20054;-74
2021/07/17 05:23:43;;;;;;;5.20;2.87;;;;;;;26.64;45.87;102042.50;4412433;32;20094;-72
2021/07/17 05:26:08;;;;;;;5.80;3.28;;;;;;;26.78;45.68;102040.69;4408578;32;20050;-74
2021/07/17 05:28:34;;;;;;;8.10;2.55;;;;;;;26.71;45.65;102029.63;4411359;32;20061;-74
2021/07/17 05:31:00;;;;;;;3.78;2.58;;;;;;;26.76;45.56;102031.75;4408449;32;20094;-72
2021/07/17 05:33:26;;;;;;;7.35;3.40;;;;;;;26.88;45.13;102033.37;4409743;32;20078;-73
2021/07/17 05:35:52;;;;;;;11.20;3.80;;;;;;;26.92;45.38;102033.91;4408791;32;20104;-72
2021/07/17 05:38:18;;;;;;;11.68;4.32;;;;;;;27.09;45.03;102034.75;4409371;32;20123;-71
2021/07/17 05:40:44;;;;;;;11.45;3.78;;;;;;;27.13;45.09;102033.13;4414427;32;20534;-73
2021/07/17 05:43:10;;;;;;;6.15;2.97;;;;;;;27.33;44.75;102034.25;4407355;32;20098;-74
2021/07/17 05:45:36;;;;;;;6.55;3.20;;;;;;;27.36;44.73;102028.19;4407004;32;20188;-74
2021/07/17 05:48:03;;;;;;;7.70;3.17;;;;;;;27.33;44.80;102034.25;4412517;32;20060;-73
2021/07/17 05:50:29;;;;;;;8.95;3.58;;;;;;;27.74;44.17;102035.28;4407185;32;20089;-72
2021/07/17 05:52:55;;;;;;;11.10;4.05;;;;;;;27.74;43.96;102036.09;4408487;32;20054;-71
2021/07/17 05:55:21;;;;;;;7.28;3.47;;;;;;;27.79;43.81;102035.28;4411733;32;20098;-72
2021/07/17 05:57:46;;;;;;;7.22;3.12;;;;;;;27.82;44.08;102040.00;4404255;32;20074;-73
2021/07/17 06:00:15;;;;;;;7.75;3.30;;;;;;;27.85;44.09;102033.16;4408742;32;20448;-72
2021/07/17 06:02:41;;;;;;;9.23;3.45;;;;;;;27.91;44.14;102042.66;4406201;32;20120;-75
2021/07/17 06:05:07;;;;;;;5.15;3.10;;;;;;;27.92;44.05;102037.66;4398736;32;20104;-71
2021/07/17 06:07:33;;;;;;;7.93;3.10;;;;;;;28.13;43.84;102041.81;4409202;32;20093;-74
2021/07/17 06:09:59;;;;;;;6.28;3.70;;;;;;;28.23;43.54;102040.22;4410584;32;20103;-72
2021/07/17 06:12:25;;;;;;;10.68;3.22;;;;;;;28.40;42.83;102038.81;4411765;32;20050;-74
2021/07/17 06:14:50;;;;;;;12.52;3.22;;;;;;;28.51;42.75;102038.81;4406322;32;20034;-72
2021/07/17 06:17:16;;;;;;;5.95;3.33;;;;;;;28.62;42.43;102035.84;4411015;32;20057;-71
2021/07/17 06:19:42;;;;;;;9.00;3.60;;;;;;;28.80;42.38;102040.22;4412653;32;20034;-73
2021/07/17 06:22:09;;;;;;;9.00;4.00;;;;;;;28.88;42.25;102042.03;4407875;32;20065;-74
2021/07/17 06:24:34;;;;;;;7.22;3.28;;;;;;;29.00;42.05;102042.75;4410112;32;20078;-72
2021/07/17 06:27:00;;;;;;;4.90;3.15;;;;;;;29.20;41.60;102048.16;4414927;32;20514;-73
2021/07/17 06:29:26;;;;;;;7.85;3.55;;;;;;;29.20;41.48;102044.50;4412784;32;20119;-72
2021/07/17 06:31:52;;;;;;;6.72;2.80;;;;;;;29.17;41.54;102046.34;4411066;32;20077;-72
2021/07/17 06:34:17;;;;;;;7.00;3.25;;;;;;;29.27;41.43;102050.50;4413167;32;20073;-74
2021/07/17 06:36:43;;;;;;;10.63;3.40;;;;;;;29.44;41.11;102053.25;4411096;32;20141;-72
2021/07/17 06:39:09;;;;;;;7.45;3.03;;;;;;;29.54;40.98;102063.22;4412115;32;20087;-72
2021/07/17 06:41:35;;;;;;;6.05;3.12;;;;;;;29.71;40.71;102060.97;4410934;32;20113;-74
2021/07/17 06:44:01;;;;;;;8.27;2.90;;;;;;;29.84;40.38;102066.91;4412121;32;20103;-73
2021/07/17 06:46:26;;;;;;;8.52;3.42;;;;;;;29.94;40.09;102074.72;4413306;32;20106;-72
2021/07/17 06:48:52;;;;;;;7.07;2.83;;;;;;;30.13;39.48;102071.91;4410981;32;20106;-72
2021/07/17 06:51:17;;;;;;;7.12;3.15;;;;;;;30.12;39.28;102079.03;4413030;32;20093;-73
2021/07/17 06:53:43;;;;;;;5.97;3.03;;;;;;;30.03;39.48;102068.56;4414107;32;20081;-72
2021/07/17 06:56:09;;;;;;;6.87;3.15;;;;;;;30.25;39.24;102064.69;4412094;32;20469;-73
2021/07/17 06:58:35;;;;;;;7.20;2.40;;;;;;;30.48;38.87;102075.50;4412976;32;20046;-72
2021/07/17 07:01:02;;;;;;;6.35;2.28;;;;;;;30.75;38.20;102073.59;4409575;32;20077;-74
2021/07/17 07:03:28;;;;;;;8.63;2.50;;;;;;;30.76;37.75;102081.75;4409545;32;20118;-73
2021/07/17 07:05:54;;;;;;;7.45;2.30;;;;;;;30.77;37.75;102085.47;4411682;32;20084;-74
2021/07/17 07:08:20;;;;;;;4.72;2.25;;;;;;;30.89;37.55;102080.28;4411260;32;20086;-75
2021/07/17 07:10:45;;;;;;;4.60;2.40;;;;;;;31.00;37.34;102085.91;4411427;32;20049;-73
2021/07/17 07:13:13;;;;;;;5.22;3.05;;;;;;;31.02;37.25;102075.31;4413444;32;20097;-74
2021/07/17 07:15:39;;;;;;;9.43;2.62;;;;;;;31.39;36.65;102086.97;4411830;32;20087;-74
2021/07/17 07:18:06;;;;;;;5.85;2.28;;;;;;;31.52;36.34;102092.03;4410197;32;20076;-73
2021/07/17 07:20:32;;;;;;;6.53;2.85;;;;;;;31.75;36.14;102085.28;4410624;32;20061;-73
2021/07/17 07:22:59;;;;;;;7.37;2.72;;;;;;;31.84;35.84;102093.63;4415465;32;20081;-74
2021/07/17 07:25:24;;;;;;;6.65;3.00;;;;;;;31.84;35.52;102095.75;4411115;32;20038;-72
2021/07/17 07:27:50;;;;;;;9.35;3.25;;;;;;;31.93;35.40;102092.41;4409765;32;20335;-73
2021/07/17 07:30:16;;;;;;;9.38;3.08;;;;;;;32.00;35.25;102088.84;4413001;32;20383;-74
2021/07/17 07:32:42;;;;;;;4.70;2.58;;;;;;;32.05;35.22;102093.75;4413068;32;20144;-72
2021/07/17 07:35:08;;;;;;;4.53;2.53;;;;;;;32.17;35.11;102101.75;4410275;32;20038;-72
2021/07/17 07:37:34;;;;;;;7.00;2.80;;;;;;;32.35;34.68;102097.19;4413852;32;20061;-71
2021/07/17 07:40:00;;;;;;;4.22;2.15;;;;;;;32.53;34.39;102096.31;4409320;32;20087;-71
2021/07/17 07:42:26;;;;;;;6.60;2.03;;;;;;;32.57;34.17;102097.53;4411626;32;20034;-74
2021/07/17 07:44:52;;;;;;;4.47;1.73;;;;;;;32.77;33.99;102092.34;4407397;32;20030;-76
2021/07/17 07:47:19;;;;;;;5.12;2.17;;;;;;;32.91;33.74;102096.84;4411052;32;20046;-71
2021/07/17 07:49:46;;;;;;;6.40;2.10;;;;;;;33.09;33.62;102095.88;4412945;32;20046;-72
2021/07/17 07:52:12;;;;;;;4.12;1.90;;;;;;;33.19;33.32;102097.78;4410199;32;20050;-74
2021/07/17 07:54:38;;;;;;;8.27;1.92;;;;;;;33.20;33.25;102090.59;4410813;32;20060;-72
2021/07/17 07:57:05;;;;;;;5.35;2.05;;;;;;;33.14;33.18;102092.06;4410759;32;20489;-75
2021/07/17 07:59:31;;;;;;;3.17;1.70;;;;;;;33.42;32.65;102086.38;4410013;32;20525;-74
2021/07/17 08:01:56;;;;;;;5.72;1.98;;;;;;;33.38;32.85;102091.78;4411316;32;20074;-73
2021/07/17 08:04:22;;;;;;;3.33;1.70;;;;;;;33.22;32.83;102087.87;4411529;32;20371;-74
2021/07/17 08:06:47;;;;;;;8.73;2.20;;;;;;;33.62;32.18;102088.53;4410594;32;20042;-73
2021/07/17 08:09:13;;;;;;;6.15;1.92;;;;;;;33.61;32.23;102089.88;4413249;32;20077;-74
2021/07/17 08:11:39;;;;;;;4.60;1.83;;;;;;;33.58;32.32;102093.94;4414051;32;20046;-72
2021/07/17 08:14:04;;;;;;;7.65;2.08;;;;;;;33.68;32.26;102095.78;4408350;32;20042;-72
2021/07/17 08:16:30;;;;;;;6.12;2.42;;;;;;;33.63;32.23;102098.88;4406905;32;20034;-72
2021/07/17 08:18:56;;;;;;;4.62;2.05;;;;;;;33.90;31.77;102100.31;4413068;32;20452;-71
2021/07/17 08:21:22;;;;;;;6.65;2.17;;;;;;;34.01;31.87;102097.09;4411606;32;20121;-74
2021/07/17 08:23:48;;;;;;;8.02;2.45;;;;;;;34.19;31.51;102093.94;4411904;32;20033;-76
2021/07/17 08:26:13;;;;;;;5.22;1.40;;;;;;;34.13;31.42;102095.44;4410002;32;20128;-73
2021/07/17 08:28:39;;;;;;;6.18;2.10;;;;;;;34.33;31.06;102094.63;4413542;32;20026;-74
2021/07/17 08:31:05;;;;;;;4.25;1.60;;;;;;;34.46;30.69;102088.69;4411161;32;20077;-74
2021/07/17 08:33:32;;;;;;;8.32;2.17;;;;;;;34.65;30.56;102097.94;4412694;32;20029;-71
2021/07/17 08:35:58;;;;;;;5.35;2.28;;;;;;;34.70;30.37;102096.22;4410403;32;20076;-72
2021/07/17 08:38:24;;;;;;;6.72;1.95;;;;;;;34.76;30.33;102091.00;4415471;32;20099;-73
2021/07/17 08:40:52;;;;;;;6.47;2.17;;;;;;;34.86;30.12;102092.03;4399713;32;20358;-71
2021/07/17 08:43:18;;;;;;;5.68;1.80;;;;;;;34.93;30.48;102095.00;4395720;32;20089;-74
2021/07/17 08:45:44;;;;;;;4.07;1.98;;;;;;;34.88;30.50;102095.19;4412167;32;20116;-72
2021/07/17 08:48:10;;;;;;;6.70;2.17;;;;;;;35.21;29.83;102094.09;4414299;32;20116;-73
2021/07/17 08:50:37;;;;;;;4.93;1.40;;;;;;;35.41;29.44;102094.03;4409965;32;20038;-74
2021/07/17 08:53:03;;;;;;;4.37;1.90;;;;;;;35.48;29.52;102095.38;4410008;32;20135;-72
2021/07/17 08:55:29;;;;;;;4.50;1.80;;;;;;;35.48;29.34;102098.31;4410508;32;20440;-72
2021/07/17 08:57:56;;;;;;;7.87;1.90;;;;;;;35.20;29.29;102096.28;4411590;32;20395;-74
2021/07/17 09:00:25;;;;;;;6.20;1.80;;;;;;;35.54;29.03;102087.19;4412592;32;20118;-75
2021/07/17 09:02:54;;;;;;;5.82;1.73;;;;;;;36.19;28.77;102095.03;4410724;32;20101;-72
2021/07/17 09:05:22;;;;;;;7.55;1.73;;;;;;;36.58;28.06;102088.56;4410118;32;20077;-73
2021/07/17 09:07:48;;;;;;;4.28;1.85;;;;;;;36.19;28.21;102095.03;4410949;32;20120;-72
2021/07/17 09:21:17;;;;;;;7.60;2.60;;;;;;;38.07;26.10;102084.59;3977954;31;15715341;-71
2021/07/17 09:23:45;;;;;;;6.72;1.92;;;;;;;38.07;26.10;102084.59;4442484;32;20076;-71
2021/07/17 09:26:15;;;;;;;3.58;1.58;;;;;;;37.86;25.98;102079.09;4456480;32;20084;-73
2021/07/17 09:28:53;;;;;;;6.37;1.73;;;;;;;38.27;25.74;102078.34;4457359;32;20071;-72
2021/07/17 09:31:19;;;;;;;6.55;2.15;;;;;;;38.54;25.46;102082.19;4455352;32;20049;-72
2021/07/17 09:33:48;;;;;;;5.68;1.73;;;;;;;38.33;25.44;102081.03;4457336;32;20398;-71
2021/07/17 09:36:15;;;;;;;4.70;1.60;;;;;;;38.16;25.30;102075.13;4456158;32;20036;-71
2021/07/17 09:38:49;;;;;;;8.77;2.30;;;;;;;38.08;25.55;102080.28;4454875;32;20130;-74
2021/07/17 09:41:17;;;;;;;5.05;1.50;;;;;;;38.43;25.46;102078.97;4450707;32;20115;-72
2021/07/17 09:43:44;;;;;;;7.62;2.17;;;;;;;38.69;24.84;102073.19;4456216;32;20072;-71
2021/07/17 09:46:27;;;;;;;3.70;1.50;;;;;;;38.91;24.59;102072.12;4454759;32;20052;-72
2021/07/17 09:48:58;;;;;;;3.92;1.50;;;;;;;39.42;23.69;102074.22;4454401;32;20077;-73
2021/07/17 09:51:28;;;;;;;8.25;2.22;;;;;;;39.58;23.04;102079.25;4456254;32;20102;-74
2021/07/17 09:54:03;;;;;;;5.43;1.52;;;;;;;39.39;23.11;102079.16;4456167;32;20041;-74
2021/07/17 09:56:33;;;;;;;2.80;1.50;;;;;;;39.90;22.61;102074.44;4452603;32;20142;-73
2021/07/17 09:59:00;;;;;;;3.60;1.35;;;;;;;39.65;22.66;102081.31;4456959;32;20490;-74
2021/07/17 10:14:40;;;;;;;6.47;1.65;;;;;;;41.16;21.16;102067.41;3987420;32;15021850;-72
2021/07/17 10:17:10;;;;;;;3.42;1.58;;;;;;;41.16;21.16;102067.41;4435580;32;20067;-74
2021/07/17 10:19:38;;;;;;;2.60;1.30;;;;;;;41.12;20.95;102060.44;4437285;32;20072;-75
2021/07/17 10:22:06;;;;;;;3.10;1.20;;;;;;;41.84;19.99;102062.81;4435659;32;20564;-72
2021/07/17 10:24:33;;;;;;;1.62;1.00;;;;;;;42.11;19.45;102066.28;4438603;32;20070;-75
2021/07/17 10:27:00;;;;;;;2.72;1.35;;;;;;;41.94;19.34;102059.84;4437931;32;20155;-72
2021/07/17 10:29:26;;;;;;;3.87;1.40;;;;;;;42.01;19.35;102062.59;4435377;32;20622;-73
2021/07/17 10:31:56;;;;;;;7.10;1.20;;;;;;;42.26;19.17;102051.06;4435057;32;20057;-75
2021/07/17 10:34:22;;;;;;;3.70;1.37;;;;;;;42.52;19.00;102058.06;4434345;32;20080;-74
2021/07/17 10:39:35;;;;;;;4.18;1.37;;;;;;;43.05;19.03;102052.12;3986907;32;15025544;-74
2021/07/17 10:42:09;;;;;;;4.55;1.40;;;;;;;43.05;19.03;102052.12;4440295;32;20040;-73
2021/07/17 10:47:15;;;;;;;2.35;1.35;;;;;;;43.96;17.78;102058.84;3983535;32;15024372;-73
2021/07/17 10:55:34;;;;;;;2.17;1.35;;;;;;;44.12;17.43;102050.19;3983411;32;15026478;-73
2021/07/17 10:58:34;;;;;;;2.45;1.30;;;;;;;44.12;17.43;102050.19;4441104;32;20483;-72
2021/07/17 11:01:00;;;;;;;4.95;1.42;;;;;;;43.94;17.91;102052.78;4436484;32;20150;-73
2021/07/17 11:03:29;;;;;;;2.03;1.17;;;;;;;43.77;17.84;102058.31;4426330;32;21105;-75
2021/07/17 11:05:55;;;;;;;3.40;1.30;;;;;;;43.50;18.16;102058.06;4424919;32;20387;-73
2021/07/17 11:08:38;;;;;;;4.95;1.60;;;;;;;43.82;17.93;102063.06;4425531;32;20061;-73
2021/07/17 11:16:43;;;;;;;2.78;1.12;;;;;;;45.28;16.59;102054.28;3983757;32;15021456;-73
2021/07/17 11:22:07;;;;;;;5.20;1.45;;;;;;;46.42;15.73;102054.69;3985444;32;15022369;-72
2021/07/17 11:24:33;;;;;;;4.62;1.70;;;;;;;46.42;15.73;102054.69;4440013;32;20025;-74
2021/07/17 11:27:08;;;;;;;5.07;1.45;;;;;;;46.15;15.83;102042.84;4438107;32;20034;-72
2021/07/17 11:29:39;;;;;;;2.47;1.35;;;;;;;46.34;15.69;102048.31;4442083;32;20112;-72
2021/07/17 11:32:07;;;;;;;1.40;1.10;;;;;;;46.37;15.63;102052.94;4439186;32;20034;-74
2021/07/17 11:34:35;;;;;;;3.53;1.15;;;;;;;46.80;15.05;102046.22;4439478;32;20065;-74
2021/07/17 11:37:06;;;;;;;3.15;1.50;;;;;;;46.62;14.98;102045.28;4440770;32;20021;-74
2021/07/17 11:39:34;;;;;;;3.58;1.15;;;;;;;46.47;14.80;102038.59;4442089;32;20037;-74
2021/07/17 11:42:03;;;;;;;4.10;1.05;;;;;;;46.31;15.07;102025.03;4436715;32;20022;-74
2021/07/17 11:44:32;;;;;;;2.90;1.25;;;;;;;45.78;15.77;102033.34;4441729;32;20176;-72
2021/07/17 11:52:14;;;;;;;2.00;1.62;;;;;;;46.98;15.04;102026.28;3981838;32;15022318;-72
2021/07/17 11:54:42;;;;;;;3.08;1.25;;;;;;;46.98;15.04;102026.28;4440335;32;20135;-72
2021/07/17 11:57:17;;;;;;;7.07;1.60;;;;;;;45.42;15.82;102027.56;4442522;32;20085;-75
2021/07/17 11:59:48;;;;;;;2.90;1.25;;;;;;;45.33;16.18;102020.34;4439022;32;20042;-72
2021/07/17 12:02:17;;;;;;;4.28;1.60;;;;;;;45.98;15.64;102021.78;4428429;32;20069;-75
2021/07/17 12:07:24;;;;;;;1.80;1.10;;;;;;;46.45;15.25;102020.59;4001316;31;15026969;-73
2021/07/17 12:09:53;;;;;;;2.22;1.27;;;;;;;46.45;15.25;102020.59;4449188;32;20033;-75
2021/07/17 12:15:16;;;;;;;4.27;1.37;;;;;;;47.95;14.05;102029.53;4001488;31;15019591;-72
2021/07/17 12:17:53;;;;;;;2.00;1.20;;;;;;;47.95;14.05;102029.53;4456271;32;20049;-74